createdAt,value
2022-11-25T00:00:03.214Z,3.25
2022-11-25T00:03:13.186Z,3.26
2022-11-25T00:06:20.790Z,3.22
2022-11-25T00:09:23.055Z,3.17
2022-11-25T00:12:25.078Z,3.07
2022-11-25T00:15:27.122Z,3.04
2022-11-25T00:18:28.946Z,2.95
2022-11-25T00:21:33.401Z,2.97
2022-11-25T00:24:35.523Z,2.85
2022-11-25T00:27:37.972Z,2.84
2022-11-25T00:30:39.980Z,2.77
2022-11-25T00:33:42.587Z,2.76
2022-11-25T00:36:44.457Z,2.66
2022-11-25T00:39:46.255Z,2.62
2022-11-25T00:43:06.723Z,2.58
2022-11-25T00:46:08.520Z,2.57
2022-11-25T00:49:12.941Z,2.63
2022-11-25T00:52:17.297Z,2.61
2022-11-25T00:55:19.288Z,2.69
2022-11-25T00:58:21.757Z,2.73
2022-11-25T01:01:24.907Z,2.67
2022-11-25T01:04:27.267Z,2.63
2022-11-25T01:07:29.039Z,2.61
2022-11-25T01:10:30.973Z,2.66
2022-11-25T01:13:35.096Z,2.75
2022-11-25T01:16:37.485Z,2.69
2022-11-25T01:19:42.322Z,2.45
2022-11-25T01:22:44.205Z,2.37
2022-11-25T01:25:45.930Z,2.35
2022-11-25T01:28:48.289Z,2.40
2022-11-25T01:31:50.425Z,2.60
2022-11-25T01:34:55.122Z,2.57
2022-11-25T01:37:56.989Z,2.44
2022-11-25T01:40:59.928Z,2.32
2022-11-25T01:44:07.348Z,2.22
2022-11-25T01:47:26.466Z,2.22
2022-11-25T01:50:29.047Z,2.18
2022-11-25T01:53:30.989Z,2.18
2022-11-25T01:56:38.592Z,2.21
2022-11-25T01:59:45.249Z,2.30
2022-11-25T02:02:49.825Z,2.36
2022-11-25T02:05:58.067Z,2.37
2022-11-25T02:09:04.496Z,2.16
2022-11-25T02:12:06.916Z,2.16
2022-11-25T02:15:09.126Z,2.19
2022-11-25T02:18:12.785Z,2.17
2022-11-25T02:21:18.571Z,2.01
2022-11-25T02:24:30.252Z,2.10
2022-11-25T02:27:32.668Z,2.22
2022-11-25T02:30:34.895Z,2.24
2022-11-25T02:33:37.578Z,2.24
2022-11-25T02:36:39.571Z,2.19
2022-11-25T02:39:42.140Z,1.92
2022-11-25T02:42:45.141Z,1.91
2022-11-25T02:46:02.002Z,2.05
2022-11-25T02:49:11.388Z,2.15
2022-11-25T02:52:16.615Z,2.10
2022-11-25T02:55:18.915Z,2.10
2022-11-25T02:58:21.572Z,2.08
2022-11-25T03:01:24.120Z,2.07
2022-11-25T03:04:25.938Z,1.93
2022-11-25T03:07:27.838Z,1.80
2022-11-25T03:10:30.424Z,1.84
2022-11-25T03:13:34.499Z,1.84
2022-11-25T03:16:37.557Z,1.98
2022-11-25T03:19:39.811Z,1.82
2022-11-25T03:22:45.360Z,1.73
2022-11-25T03:25:47.175Z,1.63
2022-11-25T03:28:49.139Z,1.71
2022-11-25T03:31:51.422Z,1.67
2022-11-25T03:34:55.450Z,1.74
2022-11-25T03:37:57.630Z,1.65
2022-11-25T03:40:59.641Z,1.71
2022-11-25T03:44:01.918Z,1.59
2022-11-25T03:47:04.427Z,1.63
2022-11-25T03:50:07.194Z,1.72
2022-11-25T03:53:09.365Z,1.68
2022-11-25T03:56:12.864Z,1.70
2022-11-25T03:59:15.039Z,1.72
2022-11-25T04:02:16.912Z,1.87
2022-11-25T04:05:18.889Z,1.86
2022-11-25T04:08:21.520Z,1.86
2022-11-25T04:11:43.859Z,1.58
2022-11-25T04:14:46.692Z,1.68
2022-11-25T04:17:48.565Z,1.76
2022-11-25T04:20:50.913Z,1.88
2022-11-25T04:23:52.903Z,1.72
2022-11-25T04:26:55.928Z,1.84
2022-11-25T04:29:58.374Z,1.94
2022-11-25T04:33:01.496Z,2.04
2022-11-25T04:36:04.256Z,2.09
2022-11-25T04:39:06.492Z,2.01
2022-11-25T04:42:28.927Z,1.93
2022-11-25T04:45:51.504Z,1.92
2022-11-25T04:48:55.903Z,1.92
2022-11-25T04:51:57.937Z,1.90
2022-11-25T04:55:00.564Z,1.70
2022-11-25T04:58:02.995Z,1.55
2022-11-25T05:01:07.837Z,1.64
2022-11-25T05:04:10.514Z,1.66
2022-11-25T05:07:13.166Z,1.62
2022-11-25T05:10:16.295Z,1.53
2022-11-25T05:13:22.018Z,1.56
2022-11-25T05:16:23.971Z,1.44
2022-11-25T05:19:27.137Z,1.46
2022-11-25T05:22:31.300Z,1.53
2022-11-25T05:25:33.481Z,1.55
2022-11-25T05:28:57.720Z,1.40
2022-11-25T05:31:59.847Z,1.51
2022-11-25T05:35:02.553Z,1.67
2022-11-25T05:38:04.621Z,1.62
2022-11-25T05:41:08.526Z,1.54
2022-11-25T05:44:10.726Z,1.42
2022-11-25T05:47:13.518Z,1.45
2022-11-25T05:50:16.703Z,1.42
2022-11-25T05:53:37.942Z,1.54
2022-11-25T05:56:40.266Z,1.61
2022-11-25T05:59:42.742Z,1.63
2022-11-25T06:02:51.267Z,1.71
2022-11-25T06:05:56.869Z,1.79
2022-11-25T06:08:59.126Z,1.83
2022-11-25T06:12:01.173Z,1.84
2022-11-25T06:15:04.305Z,1.82
2022-11-25T06:18:06.522Z,1.78
2022-11-25T06:21:11.087Z,1.76
2022-11-25T06:24:12.965Z,1.85
2022-11-25T06:27:17.664Z,1.94
2022-11-25T06:30:19.738Z,2.06
2022-11-25T06:33:34.472Z,2.15
2022-11-25T06:36:38.545Z,2.10
2022-11-25T06:39:40.623Z,2.03
2022-11-25T06:42:44.022Z,2.07
2022-11-25T06:45:46.395Z,2.15
2022-11-25T06:48:48.764Z,2.23
2022-11-25T06:51:51.272Z,2.46
2022-11-25T06:54:54.466Z,2.50
2022-11-25T06:58:13.920Z,2.50
2022-11-25T07:01:20.593Z,2.57
2022-11-25T07:04:22.927Z,2.57
2022-11-25T07:07:25.297Z,2.58
2022-11-25T07:10:27.589Z,2.44
2022-11-25T07:13:29.694Z,2.29
2022-11-25T07:16:32.897Z,2.38
2022-11-25T07:19:36.009Z,2.72
2022-11-25T07:22:38.031Z,2.82
2022-11-25T07:25:40.213Z,2.73
2022-11-25T07:28:42.677Z,2.77
2022-11-25T07:31:46.137Z,2.80
2022-11-25T07:34:50.721Z,2.72
2022-11-25T07:37:53.915Z,2.73
2022-11-25T07:40:56.127Z,2.66
2022-11-25T07:44:01.202Z,2.74
2022-11-25T07:47:04.745Z,2.87
2022-11-25T07:50:07.540Z,2.98
2022-11-25T07:53:09.354Z,3.08
2022-11-25T07:56:11.189Z,3.14
2022-11-25T07:59:15.613Z,3.20
2022-11-25T08:02:17.453Z,3.23
2022-11-25T08:05:19.425Z,3.28
2022-11-25T08:08:21.189Z,3.19
2022-11-25T08:11:28.755Z,3.03
2022-11-25T08:14:30.600Z,3.18
2022-11-25T08:17:32.542Z,3.04
2022-11-25T08:20:34.648Z,3.14
2022-11-25T08:23:38.033Z,3.15
2022-11-25T08:26:39.951Z,2.93
2022-11-25T08:29:42.040Z,2.95
2022-11-25T08:32:43.976Z,2.95
2022-11-25T08:35:53.631Z,2.79
2022-11-25T08:38:59.949Z,2.91
2022-11-25T08:42:06.813Z,2.92
2022-11-25T08:45:09.593Z,3.25
2022-11-25T08:48:11.502Z,3.25
2022-11-25T08:51:17.474Z,3.38
2022-11-25T08:54:19.242Z,3.40
2022-11-25T08:57:21.049Z,3.44
2022-11-25T09:00:23.378Z,3.36
2022-11-25T09:03:25.356Z,3.59
2022-11-25T09:06:28.866Z,3.94
2022-11-25T09:09:31.376Z,4.00
2022-11-25T09:12:33.345Z,4.02
2022-11-25T09:15:37.962Z,3.95
2022-11-25T09:18:40.152Z,4.22
2022-11-25T09:21:43.859Z,4.10
2022-11-25T09:24:46.414Z,3.77
2022-11-25T09:27:48.445Z,3.96
2022-11-25T09:30:50.661Z,4.09
2022-11-25T09:33:53.266Z,3.95
2022-11-25T09:36:55.347Z,4.12
2022-11-25T09:39:57.356Z,4.07
2022-11-25T09:43:22.450Z,4.07
2022-11-25T09:46:43.407Z,4.31
2022-11-25T09:49:53.487Z,4.37
2022-11-25T09:53:34.674Z,4.53
2022-11-25T09:57:06.998Z,4.60
2022-11-25T10:00:16.336Z,4.67
2022-11-25T10:03:33.859Z,4.75
2022-11-25T10:06:48.411Z,4.68
2022-11-25T10:09:54.038Z,4.96
2022-11-25T10:12:57.491Z,5.02
2022-11-25T10:16:02.448Z,5.11
2022-11-25T10:19:25.198Z,5.06
2022-11-25T10:22:30.375Z,5.01
2022-11-25T10:25:37.908Z,5.16
2022-11-25T10:28:42.254Z,5.28
2022-11-25T10:31:44.992Z,5.26
2022-11-25T10:34:51.725Z,5.20
2022-11-25T10:37:55.421Z,5.13
2022-11-25T10:40:57.777Z,5.30
2022-11-25T10:43:59.780Z,5.15
2022-11-25T10:47:14.616Z,5.01
2022-11-25T10:50:23.199Z,5.21
2022-11-25T10:53:26.785Z,5.27
2022-11-25T10:56:29.056Z,5.40
2022-11-25T10:59:36.792Z,5.49
2022-11-25T11:02:39.722Z,5.57
2022-11-25T11:05:50.589Z,5.68
2022-11-25T11:08:52.589Z,5.82
2022-11-25T11:11:54.690Z,6.05
2022-11-25T11:15:26.404Z,6.13
2022-11-25T11:18:39.346Z,6.42
2022-11-25T11:21:41.929Z,6.72
2022-11-25T11:24:44.073Z,6.80
2022-11-25T11:27:46.806Z,6.90
2022-11-25T11:30:57.358Z,6.90
2022-11-25T11:34:22.477Z,6.53
2022-11-25T11:37:46.614Z,6.60
2022-11-25T11:40:53.124Z,6.79
2022-11-25T11:43:58.073Z,6.83
2022-11-25T11:47:18.758Z,6.83
2022-11-25T11:50:26.744Z,6.81
2022-11-25T11:53:34.799Z,6.80
2022-11-25T11:56:43.374Z,6.75
2022-11-25T11:59:50.292Z,6.78
2022-11-25T12:03:19.845Z,6.82
2022-11-25T12:06:23.178Z,6.95
2022-11-25T12:09:28.518Z,7.00
2022-11-25T12:12:41.019Z,6.80
2022-11-25T12:15:48.965Z,6.77
2022-11-25T12:18:52.837Z,6.86
2022-11-25T12:22:05.417Z,6.88
2022-11-25T12:25:19.375Z,7.02
2022-11-25T12:28:36.933Z,6.90
2022-11-25T12:31:45.757Z,6.82
2022-11-25T12:34:56.484Z,6.91
2022-11-25T12:38:21.681Z,6.91
2022-11-25T12:41:44.299Z,7.09
2022-11-25T12:45:10.508Z,7.12
2022-11-25T12:48:13.101Z,7.27
2022-11-25T12:51:36.942Z,7.12
2022-11-25T12:54:52.736Z,7.01
2022-11-25T12:58:41.363Z,7.04
2022-11-25T13:02:02.251Z,6.99
2022-11-25T13:05:40.202Z,7.12
2022-11-25T13:08:58.282Z,7.16
2022-11-25T13:12:02.561Z,7.04
2022-11-25T13:15:27.282Z,6.82
2022-11-25T13:18:31.928Z,6.68
2022-11-25T13:21:34.575Z,6.75
2022-11-25T13:24:43.399Z,6.68
2022-11-25T13:27:45.935Z,6.82
2022-11-25T13:30:51.712Z,6.75
2022-11-25T13:34:04.151Z,6.52
2022-11-25T13:37:36.467Z,6.56
2022-11-25T13:40:39.792Z,6.75
2022-11-25T13:43:53.977Z,6.44
2022-11-25T13:46:58.473Z,6.59
2022-11-25T13:50:24.515Z,6.56
2022-11-25T13:53:35.215Z,6.48
2022-11-25T13:56:37.658Z,6.36
2022-11-25T13:59:42.690Z,6.43
2022-11-25T14:02:46.629Z,6.47
2022-11-25T14:06:28.583Z,6.44
2022-11-25T14:09:48.444Z,6.40
2022-11-25T14:13:02.866Z,6.30
2022-11-25T14:16:42.120Z,6.16
2022-11-25T14:19:55.707Z,6.20
2022-11-25T14:23:04.195Z,6.21
2022-11-25T14:26:34.155Z,6.16
2022-11-25T14:29:40.400Z,6.24
2022-11-25T14:32:53.692Z,6.24
2022-11-25T14:36:02.185Z,6.26
2022-11-25T14:39:14.324Z,6.28
2022-11-25T14:42:20.001Z,6.33
2022-11-25T14:45:27.292Z,6.38
2022-11-25T14:48:29.374Z,6.37
2022-11-25T14:51:35.852Z,6.32
2022-11-25T14:54:44.811Z,6.27
2022-11-25T14:57:47.123Z,6.34
2022-11-25T15:00:53.382Z,6.36
2022-11-25T15:04:14.264Z,6.30
2022-11-25T15:07:20.147Z,6.32
2022-11-25T15:10:43.130Z,6.39
2022-11-25T15:13:53.224Z,6.42
2022-11-25T15:16:56.494Z,6.43
2022-11-25T15:20:04.447Z,6.42
2022-11-25T15:23:12.949Z,6.36
2022-11-25T15:26:20.755Z,6.37
2022-11-25T15:29:23.241Z,6.35
2022-11-25T15:32:30.330Z,6.34
2022-11-25T15:35:32.509Z,6.32
2022-11-25T15:38:36.092Z,6.29
2022-11-25T15:41:43.797Z,6.28
2022-11-25T15:44:51.909Z,6.23
2022-11-25T15:47:53.882Z,6.21
2022-11-25T15:51:17.991Z,6.19
2022-11-25T15:54:30.641Z,6.15
2022-11-25T15:57:36.971Z,6.17
2022-11-25T16:00:41.884Z,6.16
2022-11-25T16:03:45.209Z,6.11
2022-11-25T16:06:56.571Z,6.16
2022-11-25T16:09:58.549Z,6.20
2022-11-25T16:13:26.043Z,6.10
2022-11-25T16:16:29.562Z,6.09
2022-11-25T16:19:39.932Z,6.07
2022-11-25T16:22:42.652Z,6.14
2022-11-25T16:25:58.369Z,6.12
2022-11-25T16:29:01.498Z,6.12
2022-11-25T16:32:15.319Z,5.94
2022-11-25T16:35:23.766Z,6.04
2022-11-25T16:38:27.094Z,6.07
2022-11-25T16:41:30.122Z,6.08
2022-11-25T16:44:35.039Z,6.04
2022-11-25T16:47:37.156Z,5.98
2022-11-25T16:50:39.454Z,5.95
2022-11-25T16:53:41.999Z,5.91
2022-11-25T16:56:45.326Z,5.91
2022-11-25T16:59:52.114Z,5.91
2022-11-25T17:02:58.538Z,5.83
2022-11-25T17:06:00.855Z,5.79
2022-11-25T17:09:03.499Z,5.80
2022-11-25T17:12:11.808Z,5.76
2022-11-25T17:15:17.324Z,5.76
2022-11-25T17:18:20.310Z,5.77
2022-11-25T17:21:28.531Z,5.75
2022-11-25T17:24:30.586Z,5.70
2022-11-25T17:27:33.560Z,5.69
2022-11-25T17:30:36.548Z,5.71
2022-11-25T17:33:39.114Z,5.70
2022-11-25T17:36:41.424Z,5.76
2022-11-25T17:39:44.091Z,5.77
2022-11-25T17:42:48.928Z,5.76
2022-11-25T17:45:51.321Z,5.73
2022-11-25T17:48:54.441Z,5.74
2022-11-25T17:51:56.920Z,5.64
2022-11-25T17:54:59.630Z,5.66
2022-11-25T17:58:02.050Z,5.65
2022-11-25T18:01:04.985Z,5.72
2022-11-25T18:04:35.406Z,5.71
2022-11-25T18:07:38.189Z,5.68
2022-11-25T18:10:40.895Z,5.64
2022-11-25T18:13:45.391Z,5.68
2022-11-25T18:16:49.090Z,5.74
2022-11-25T18:19:55.231Z,5.80
2022-11-25T18:22:58.607Z,5.78
2022-11-25T18:26:01.918Z,5.80
2022-11-25T18:29:04.939Z,5.81
2022-11-25T18:32:10.350Z,5.70
2022-11-25T18:35:32.692Z,5.69
2022-11-25T18:38:39.799Z,5.67
2022-11-25T18:41:43.007Z,5.63
2022-11-25T18:44:45.550Z,5.59
2022-11-25T18:47:51.385Z,5.55
2022-11-25T18:50:58.476Z,5.62
2022-11-25T18:54:00.799Z,5.58
2022-11-25T18:57:03.315Z,5.53
2022-11-25T19:00:41.056Z,5.52
2022-11-25T19:03:34.964Z,5.58
2022-11-25T19:06:39.622Z,5.63
2022-11-25T19:09:41.921Z,5.59
2022-11-25T19:12:49.083Z,5.60
2022-11-25T19:15:51.396Z,5.43
2022-11-25T19:18:54.142Z,5.37
2022-11-25T19:21:56.700Z,5.27
2022-11-25T19:24:59.904Z,5.14
2022-11-25T19:28:03.232Z,4.97
2022-11-25T19:31:07.289Z,4.78
2022-11-25T19:34:17.073Z,4.67
2022-11-25T19:37:24.308Z,4.75
2022-11-25T19:40:39.010Z,4.56
2022-11-25T19:43:42.203Z,4.34
2022-11-25T19:47:13.660Z,4.36
2022-11-25T19:50:17.736Z,4.18
2022-11-25T19:53:24.289Z,4.01
2022-11-25T19:56:27.679Z,4.17
2022-11-25T19:59:29.874Z,4.09
2022-11-25T20:02:32.300Z,3.92
2022-11-25T20:05:37.852Z,3.74
2022-11-25T20:08:40.559Z,3.72
2022-11-25T20:11:46.368Z,3.80
2022-11-25T20:14:50.657Z,3.66
2022-11-25T20:17:56.631Z,3.59
2022-11-25T20:21:01.834Z,3.59
2022-11-25T20:24:09.453Z,3.51
2022-11-25T20:27:13.038Z,3.35
2022-11-25T20:30:29.324Z,3.46
2022-11-25T20:33:31.439Z,3.35
2022-11-25T20:36:34.003Z,3.36
2022-11-25T20:39:36.131Z,3.37
2022-11-25T20:42:38.083Z,3.28
2022-11-25T20:45:40.336Z,3.16
2022-11-25T20:48:43.016Z,3.13
2022-11-25T20:51:48.313Z,3.03
2022-11-25T20:54:50.965Z,2.86
2022-11-25T20:57:53.755Z,2.89
2022-11-25T21:00:57.709Z,2.85
2022-11-25T21:04:00.326Z,2.76
2022-11-25T21:07:02.353Z,2.67
2022-11-25T21:10:17.947Z,2.64
2022-11-25T21:13:30.390Z,2.71
2022-11-25T21:16:32.334Z,2.78
2022-11-25T21:19:34.934Z,2.77
2022-11-25T21:22:41.298Z,2.78
2022-11-25T21:25:43.746Z,2.71
2022-11-25T21:28:47.618Z,2.73
2022-11-25T21:31:50.231Z,2.77
2022-11-25T21:34:52.962Z,2.81
2022-11-25T21:37:55.137Z,2.92
2022-11-25T21:40:58.651Z,2.94
2022-11-25T21:44:01.218Z,2.85
2022-11-25T21:47:19.507Z,2.73
2022-11-25T21:50:22.297Z,2.78
2022-11-25T21:53:24.847Z,2.72
2022-11-25T21:56:28.619Z,2.73
2022-11-25T21:59:31.166Z,2.76
2022-11-25T22:02:33.349Z,2.85
2022-11-25T22:05:35.528Z,2.85
2022-11-25T22:08:37.584Z,2.86
2022-11-25T22:11:42.303Z,2.87
2022-11-25T22:14:44.391Z,2.86
2022-11-25T22:17:57.288Z,2.87
2022-11-25T22:20:59.772Z,2.87
2022-11-25T22:24:01.671Z,2.87
2022-11-25T22:27:06.897Z,2.89
2022-11-25T22:30:18.249Z,2.73
2022-11-25T22:33:30.248Z,2.73
2022-11-25T22:36:34.843Z,2.73
2022-11-25T22:39:36.646Z,2.85
2022-11-25T22:42:39.371Z,2.91
2022-11-25T22:45:41.342Z,2.99
2022-11-25T22:48:43.652Z,2.86
2022-11-25T22:51:45.627Z,2.87
2022-11-25T22:54:48.213Z,2.69
2022-11-25T22:57:51.855Z,2.61
2022-11-25T23:00:55.430Z,2.64
2022-11-25T23:03:57.769Z,2.64
2022-11-25T23:07:00.098Z,2.56
2022-11-25T23:10:02.039Z,2.53
2022-11-25T23:13:03.925Z,2.52
2022-11-25T23:16:06.222Z,2.53
2022-11-25T23:19:16.949Z,2.50
2022-11-25T23:22:19.402Z,2.55
2022-11-25T23:25:22.521Z,2.49
2022-11-25T23:28:25.454Z,2.37
2022-11-25T23:31:27.508Z,2.17
2022-11-25T23:34:29.643Z,2.08
2022-11-25T23:37:32.096Z,2.04
2022-11-25T23:40:34.343Z,2.07
2022-11-25T23:43:36.467Z,2.03
2022-11-25T23:46:38.479Z,2.02
2022-11-25T23:49:44.219Z,2.07
2022-11-25T23:52:46.216Z,1.92
2022-11-25T23:55:50.561Z,1.91
2022-11-25T23:58:52.462Z,2.02
